Carbon Hill, Illinois
Current Conditions -  °F | °C
As of 9:35 PM on Monday 26 Jan 2015 (Local Time) from KC09 Reporting Station
Light Snow Light Snow  
Wind Chill: 23°   Ceiling: 400
Heat Index: 28°   Visibility: 2.5mi
Dew Point: 28°   Wind: 5mph
Humidity: 100%   Direction: 160°SSE
Pressure: 29.89"   Gusts: NA
Location:  41.2967°N, 88.2846°W
Report Text: KC09 270335Z AUTO 16004KT 2 1/2SM -SN OVC004 M02/M02 A2989 RMK AO2 T10201020
Loading
Personal Weather Stations






























Interactive Weather Map New forecast layout! Learn more

10-Day Weather Forecast

Advertisements
Track Severe Weather on mobile